Terminal Aerodrome Forecast
Issued by NWS Sioux Falls, SD

Home | Current Version | Previous Version | Graphics & Text | Print | Product List | Glossary On
Versions: 1 2 3 4 5 6 7 8 9 10 11 12 13 14 15 16 17 18 19 20 21 22 23 24 25 26 27 28 29
000
FTUS43 KFSD 021744 CCA
TAFSUX
TAF COR
KSUX 021744Z 0218/0318 18016G24KT P6SM SCT035
     FM030200 14008KT P6SM FEW150
     FM030600 16010KT P6SM SCT120 WS009/21036KT
     FM031300 20011KT P6SM SCT250=

USA.gov is the U.S. government's official web portal to all federal, state and local government web resources and services.